sensor_id;sensor_type;location;lat;lon;timestamp;P1;durP1;ratioP1;P2;durP2;ratioP2
76310;SDS011;65120;59.304;18.294;2023-04-06T00:00:25;4.32;;;0.85;;
76310;SDS011;65120;59.304;18.294;2023-04-06T00:02:52;1.80;;;0.65;;
76310;SDS011;65120;59.304;18.294;2023-04-06T00:05:19;3.90;;;0.75;;
76310;SDS011;65120;59.304;18.294;2023-04-06T00:07:46;0.98;;;0.50;;
76310;SDS011;65120;59.304;18.294;2023-04-06T00:10:13;2.45;;;0.68;;
76310;SDS011;65120;59.304;18.294;2023-04-06T00:12:41;1.40;;;0.50;;
76310;SDS011;65120;59.304;18.294;2023-04-06T00:15:08;2.85;;;0.68;;
76310;SDS011;65120;59.304;18.294;2023-04-06T00:17:37;1.92;;;0.52;;
76310;SDS011;65120;59.304;18.294;2023-04-06T00:20:04;2.85;;;0.60;;
76310;SDS011;65120;59.304;18.294;2023-04-06T00:22:32;1.70;;;0.73;;
76310;SDS011;65120;59.304;18.294;2023-04-06T00:24:59;1.25;;;0.60;;
76310;SDS011;65120;59.304;18.294;2023-04-06T00:27:26;1.45;;;0.63;;
76310;SDS011;65120;59.304;18.294;2023-04-06T00:29:53;2.25;;;0.50;;
76310;SDS011;65120;59.304;18.294;2023-04-06T00:32:20;0.98;;;0.40;;
76310;SDS011;65120;59.304;18.294;2023-04-06T00:34:48;2.13;;;0.60;;
76310;SDS011;65120;59.304;18.294;2023-04-06T00:37:15;1.02;;;0.60;;
76310;SDS011;65120;59.304;18.294;2023-04-06T00:39:42;1.33;;;0.70;;
76310;SDS011;65120;59.304;18.294;2023-04-06T00:42:10;3.33;;;0.77;;
76310;SDS011;65120;59.304;18.294;2023-04-06T00:44:39;1.77;;;0.60;;
76310;SDS011;65120;59.304;18.294;2023-04-06T00:47:06;1.30;;;0.82;;
76310;SDS011;65120;59.304;18.294;2023-04-06T00:49:33;2.10;;;0.68;;
76310;SDS011;65120;59.304;18.294;2023-04-06T00:52:02;2.75;;;0.70;;
76310;SDS011;65120;59.304;18.294;2023-04-06T00:54:29;2.70;;;0.80;;
76310;SDS011;65120;59.304;18.294;2023-04-06T00:56:56;1.35;;;0.68;;
76310;SDS011;65120;59.304;18.294;2023-04-06T00:59:24;1.73;;;0.65;;
76310;SDS011;65120;59.304;18.294;2023-04-06T01:01:51;3.10;;;0.47;;
76310;SDS011;65120;59.304;18.294;2023-04-06T01:04:17;2.20;;;0.70;;
76310;SDS011;65120;59.304;18.294;2023-04-06T01:06:45;0.80;;;0.52;;
76310;SDS011;65120;59.304;18.294;2023-04-06T01:09:13;4.95;;;0.90;;
76310;SDS011;65120;59.304;18.294;2023-04-06T01:11:40;2.60;;;0.80;;
76310;SDS011;65120;59.304;18.294;2023-04-06T01:14:07;0.80;;;0.50;;
76310;SDS011;65120;59.304;18.294;2023-04-06T01:16:34;2.08;;;0.77;;
76310;SDS011;65120;59.304;18.294;2023-04-06T01:19:01;2.30;;;0.85;;
76310;SDS011;65120;59.304;18.294;2023-04-06T01:21:33;3.20;;;0.75;;
76310;SDS011;65120;59.304;18.294;2023-04-06T01:24:01;2.20;;;0.50;;
76310;SDS011;65120;59.304;18.294;2023-04-06T01:26:28;4.47;;;0.68;;
76310;SDS011;65120;59.304;18.294;2023-04-06T01:28:55;2.75;;;0.60;;
76310;SDS011;65120;59.304;18.294;2023-04-06T01:31:22;2.33;;;0.77;;
76310;SDS011;65120;59.304;18.294;2023-04-06T01:33:51;1.95;;;0.60;;
76310;SDS011;65120;59.304;18.294;2023-04-06T01:36:18;2.55;;;0.73;;
76310;SDS011;65120;59.304;18.294;2023-04-06T01:38:46;1.27;;;0.70;;
76310;SDS011;65120;59.304;18.294;2023-04-06T01:41:14;2.78;;;0.70;;
76310;SDS011;65120;59.304;18.294;2023-04-06T01:43:41;1.13;;;0.70;;
76310;SDS011;65120;59.304;18.294;2023-04-06T01:46:08;1.58;;;0.50;;
76310;SDS011;65120;59.304;18.294;2023-04-06T01:48:35;2.92;;;0.60;;
76310;SDS011;65120;59.304;18.294;2023-04-06T01:51:02;2.78;;;0.80;;
76310;SDS011;65120;59.304;18.294;2023-04-06T01:53:29;2.15;;;0.60;;
76310;SDS011;65120;59.304;18.294;2023-04-06T01:55:56;3.58;;;0.80;;
76310;SDS011;65120;59.304;18.294;2023-04-06T01:58:24;0.65;;;0.43;;
76310;SDS011;65120;59.304;18.294;2023-04-06T02:00:51;2.13;;;0.73;;
76310;SDS011;65120;59.304;18.294;2023-04-06T02:03:18;1.58;;;0.70;;
76310;SDS011;65120;59.304;18.294;2023-04-06T02:05:45;1.55;;;0.88;;
76310;SDS011;65120;59.304;18.294;2023-04-06T02:08:12;1.88;;;0.63;;
76310;SDS011;65120;59.304;18.294;2023-04-06T02:10:38;1.30;;;0.60;;
76310;SDS011;65120;59.304;18.294;2023-04-06T02:13:05;1.35;;;0.60;;
76310;SDS011;65120;59.304;18.294;2023-04-06T02:15:34;3.60;;;0.73;;
76310;SDS011;65120;59.304;18.294;2023-04-06T02:18:01;3.40;;;0.70;;
76310;SDS011;65120;59.304;18.294;2023-04-06T02:20:27;1.42;;;0.50;;
76310;SDS011;65120;59.304;18.294;2023-04-06T02:22:56;2.40;;;1.13;;
76310;SDS011;65120;59.304;18.294;2023-04-06T02:25:23;3.72;;;0.60;;
76310;SDS011;65120;59.304;18.294;2023-04-06T02:27:50;1.05;;;0.70;;
76310;SDS011;65120;59.304;18.294;2023-04-06T02:30:17;2.83;;;0.60;;
76310;SDS011;65120;59.304;18.294;2023-04-06T02:32:45;1.27;;;0.60;;
76310;SDS011;65120;59.304;18.294;2023-04-06T02:35:12;0.80;;;0.50;;
76310;SDS011;65120;59.304;18.294;2023-04-06T02:37:39;2.10;;;0.70;;
76310;SDS011;65120;59.304;18.294;2023-04-06T02:40:07;1.85;;;0.55;;
76310;SDS011;65120;59.304;18.294;2023-04-06T02:42:35;1.75;;;0.70;;
76310;SDS011;65120;59.304;18.294;2023-04-06T02:45:02;2.92;;;1.00;;
76310;SDS011;65120;59.304;18.294;2023-04-06T02:47:29;1.83;;;0.60;;
76310;SDS011;65120;59.304;18.294;2023-04-06T02:49:57;1.80;;;0.70;;
76310;SDS011;65120;59.304;18.294;2023-04-06T02:52:24;3.90;;;0.57;;
76310;SDS011;65120;59.304;18.294;2023-04-06T02:54:51;1.33;;;0.68;;
76310;SDS011;65120;59.304;18.294;2023-04-06T02:57:18;0.95;;;0.60;;
76310;SDS011;65120;59.304;18.294;2023-04-06T02:59:45;3.80;;;1.63;;
76310;SDS011;65120;59.304;18.294;2023-04-06T03:02:16;2.50;;;0.68;;
76310;SDS011;65120;59.304;18.294;2023-04-06T03:04:43;2.55;;;0.70;;
76310;SDS011;65120;59.304;18.294;2023-04-06T03:07:12;2.17;;;0.70;;
76310;SDS011;65120;59.304;18.294;2023-04-06T03:09:39;1.40;;;0.60;;
76310;SDS011;65120;59.304;18.294;2023-04-06T03:12:06;1.58;;;0.80;;
76310;SDS011;65120;59.304;18.294;2023-04-06T03:14:33;1.80;;;0.90;;
76310;SDS011;65120;59.304;18.294;2023-04-06T03:17:00;1.80;;;0.80;;
76310;SDS011;65120;59.304;18.294;2023-04-06T03:19:27;1.25;;;0.52;;
76310;SDS011;65120;59.304;18.294;2023-04-06T03:21:54;5.00;;;0.80;;
76310;SDS011;65120;59.304;18.294;2023-04-06T03:24:22;1.38;;;0.80;;
76310;SDS011;65120;59.304;18.294;2023-04-06T03:26:49;0.90;;;0.73;;
76310;SDS011;65120;59.304;18.294;2023-04-06T03:29:16;1.42;;;0.60;;
76310;SDS011;65120;59.304;18.294;2023-04-06T03:31:43;2.78;;;0.63;;
76310;SDS011;65120;59.304;18.294;2023-04-06T03:34:10;1.67;;;0.90;;
76310;SDS011;65120;59.304;18.294;2023-04-06T03:36:36;2.38;;;0.85;;
76310;SDS011;65120;59.304;18.294;2023-04-06T03:39:03;2.17;;;0.65;;
76310;SDS011;65120;59.304;18.294;2023-04-06T03:41:32;3.58;;;1.08;;
76310;SDS011;65120;59.304;18.294;2023-04-06T03:43:59;1.42;;;0.65;;
76310;SDS011;65120;59.304;18.294;2023-04-06T03:46:26;2.90;;;0.73;;
76310;SDS011;65120;59.304;18.294;2023-04-06T03:48:53;1.00;;;0.50;;
76310;SDS011;65120;59.304;18.294;2023-04-06T03:51:20;4.63;;;0.82;;
76310;SDS011;65120;59.304;18.294;2023-04-06T03:53:47;0.95;;;0.65;;
76310;SDS011;65120;59.304;18.294;2023-04-06T03:56:13;1.23;;;0.70;;
76310;SDS011;65120;59.304;18.294;2023-04-06T03:58:42;0.65;;;0.50;;
76310;SDS011;65120;59.304;18.294;2023-04-06T04:01:10;5.28;;;0.80;;
76310;SDS011;65120;59.304;18.294;2023-04-06T04:03:37;2.00;;;0.70;;
76310;SDS011;65120;59.304;18.294;2023-04-06T04:06:04;3.60;;;0.60;;
76310;SDS011;65120;59.304;18.294;2023-04-06T04:08:31;3.15;;;0.70;;
76310;SDS011;65120;59.304;18.294;2023-04-06T04:10:58;1.10;;;0.70;;
76310;SDS011;65120;59.304;18.294;2023-04-06T04:13:25;0.90;;;0.60;;
76310;SDS011;65120;59.304;18.294;2023-04-06T04:15:53;2.63;;;0.70;;
76310;SDS011;65120;59.304;18.294;2023-04-06T04:18:20;3.63;;;0.60;;
76310;SDS011;65120;59.304;18.294;2023-04-06T04:20:47;1.63;;;0.88;;
76310;SDS011;65120;59.304;18.294;2023-04-06T04:23:14;1.42;;;0.80;;
76310;SDS011;65120;59.304;18.294;2023-04-06T04:25:41;2.58;;;0.95;;
76310;SDS011;65120;59.304;18.294;2023-04-06T04:28:07;3.78;;;1.13;;
76310;SDS011;65120;59.304;18.294;2023-04-06T04:30:34;1.52;;;0.75;;
76310;SDS011;65120;59.304;18.294;2023-04-06T04:33:03;2.50;;;0.93;;
76310;SDS011;65120;59.304;18.294;2023-04-06T04:35:29;3.92;;;0.80;;
76310;SDS011;65120;59.304;18.294;2023-04-06T04:37:56;3.20;;;0.90;;
76310;SDS011;65120;59.304;18.294;2023-04-06T04:40:23;2.17;;;0.80;;
76310;SDS011;65120;59.304;18.294;2023-04-06T04:42:50;1.20;;;0.60;;
76310;SDS011;65120;59.304;18.294;2023-04-06T04:45:17;3.47;;;0.90;;
76310;SDS011;65120;59.304;18.294;2023-04-06T04:47:44;1.58;;;0.82;;
76310;SDS011;65120;59.304;18.294;2023-04-06T04:50:12;4.63;;;0.95;;
76310;SDS011;65120;59.304;18.294;2023-04-06T04:52:39;4.93;;;1.02;;
76310;SDS011;65120;59.304;18.294;2023-04-06T04:55:06;3.42;;;0.68;;
76310;SDS011;65120;59.304;18.294;2023-04-06T04:57:33;2.85;;;0.80;;
76310;SDS011;65120;59.304;18.294;2023-04-06T05:00:00;1.58;;;0.80;;
76310;SDS011;65120;59.304;18.294;2023-04-06T05:02:27;4.57;;;1.10;;
76310;SDS011;65120;59.304;18.294;2023-04-06T05:04:54;0.90;;;0.60;;
76310;SDS011;65120;59.304;18.294;2023-04-06T05:07:23;1.67;;;0.90;;
76310;SDS011;65120;59.304;18.294;2023-04-06T05:09:50;1.08;;;0.70;;
76310;SDS011;65120;59.304;18.294;2023-04-06T05:12:17;3.40;;;1.30;;
76310;SDS011;65120;59.304;18.294;2023-04-06T05:14:44;1.75;;;1.08;;
76310;SDS011;65120;59.304;18.294;2023-04-06T05:17:11;3.33;;;1.00;;
76310;SDS011;65120;59.304;18.294;2023-04-06T05:19:38;2.30;;;1.05;;
76310;SDS011;65120;59.304;18.294;2023-04-06T05:22:05;2.97;;;1.92;;
76310;SDS011;65120;59.304;18.294;2023-04-06T05:24:33;2.65;;;1.48;;
76310;SDS011;65120;59.304;18.294;2023-04-06T05:27:01;3.60;;;1.30;;
76310;SDS011;65120;59.304;18.294;2023-04-06T05:29:28;3.88;;;1.73;;
76310;SDS011;65120;59.304;18.294;2023-04-06T05:31:55;3.28;;;1.52;;
76310;SDS011;65120;59.304;18.294;2023-04-06T05:34:22;4.03;;;1.60;;
76310;SDS011;65120;59.304;18.294;2023-04-06T05:36:49;1.42;;;1.20;;
76310;SDS011;65120;59.304;18.294;2023-04-06T05:39:16;1.77;;;1.00;;
76310;SDS011;65120;59.304;18.294;2023-04-06T05:41:45;3.10;;;1.45;;
76310;SDS011;65120;59.304;18.294;2023-04-06T05:44:12;4.40;;;2.03;;
76310;SDS011;65120;59.304;18.294;2023-04-06T05:46:38;4.10;;;2.42;;
76310;SDS011;65120;59.304;18.294;2023-04-06T05:49:05;5.65;;;2.63;;
76310;SDS011;65120;59.304;18.294;2023-04-06T05:51:32;5.50;;;1.92;;
76310;SDS011;65120;59.304;18.294;2023-04-06T05:53:59;2.20;;;1.75;;
76310;SDS011;65120;59.304;18.294;2023-04-06T05:56:26;3.55;;;1.80;;
76310;SDS011;65120;59.304;18.294;2023-04-06T05:58:56;2.75;;;1.63;;
76310;SDS011;65120;59.304;18.294;2023-04-06T06:01:23;3.58;;;1.15;;
76310;SDS011;65120;59.304;18.294;2023-04-06T06:03:50;2.33;;;1.25;;
76310;SDS011;65120;59.304;18.294;2023-04-06T06:06:17;3.00;;;1.60;;
76310;SDS011;65120;59.304;18.294;2023-04-06T06:08:45;2.40;;;1.23;;
76310;SDS011;65120;59.304;18.294;2023-04-06T06:11:12;3.28;;;1.52;;
76310;SDS011;65120;59.304;18.294;2023-04-06T06:13:39;2.53;;;1.17;;
76310;SDS011;65120;59.304;18.294;2023-04-06T06:16:08;2.40;;;1.38;;
76310;SDS011;65120;59.304;18.294;2023-04-06T06:18:34;1.85;;;1.10;;
76310;SDS011;65120;59.304;18.294;2023-04-06T06:21:02;2.53;;;1.10;;
76310;SDS011;65120;59.304;18.294;2023-04-06T06:23:29;4.07;;;2.38;;
76310;SDS011;65120;59.304;18.294;2023-04-06T06:25:56;1.50;;;1.40;;
76310;SDS011;65120;59.304;18.294;2023-04-06T06:28:23;2.05;;;0.95;;
76310;SDS011;65120;59.304;18.294;2023-04-06T06:30:51;2.17;;;0.98;;
76310;SDS011;65120;59.304;18.294;2023-04-06T06:33:19;3.53;;;0.88;;
76310;SDS011;65120;59.304;18.294;2023-04-06T06:35:46;3.05;;;1.23;;
76310;SDS011;65120;59.304;18.294;2023-04-06T06:38:13;1.73;;;0.90;;
76310;SDS011;65120;59.304;18.294;2023-04-06T06:40:40;3.08;;;1.13;;
76310;SDS011;65120;59.304;18.294;2023-04-06T06:43:07;2.63;;;0.98;;
76310;SDS011;65120;59.304;18.294;2023-04-06T06:45:34;2.50;;;0.90;;
76310;SDS011;65120;59.304;18.294;2023-04-06T06:48:01;2.35;;;1.35;;
76310;SDS011;65120;59.304;18.294;2023-04-06T06:50:29;3.67;;;0.90;;
76310;SDS011;65120;59.304;18.294;2023-04-06T06:52:56;1.98;;;1.08;;
76310;SDS011;65120;59.304;18.294;2023-04-06T06:55:23;2.00;;;0.88;;
76310;SDS011;65120;59.304;18.294;2023-04-06T06:57:51;2.88;;;0.80;;
76310;SDS011;65120;59.304;18.294;2023-04-06T07:00:19;2.22;;;1.10;;
76310;SDS011;65120;59.304;18.294;2023-04-06T07:02:46;2.65;;;0.70;;
76310;SDS011;65120;59.304;18.294;2023-04-06T07:05:13;3.70;;;1.05;;
76310;SDS011;65120;59.304;18.294;2023-04-06T07:07:44;1.95;;;0.80;;
76310;SDS011;65120;59.304;18.294;2023-04-06T07:10:11;1.63;;;0.50;;
76310;SDS011;65120;59.304;18.294;2023-04-06T07:12:38;1.52;;;0.77;;
76310;SDS011;65120;59.304;18.294;2023-04-06T07:15:05;0.98;;;0.50;;
76310;SDS011;65120;59.304;18.294;2023-04-06T07:17:33;1.15;;;0.50;;
76310;SDS011;65120;59.304;18.294;2023-04-06T07:20:00;4.55;;;1.45;;
76310;SDS011;65120;59.304;18.294;2023-04-06T07:22:26;2.03;;;0.40;;
76310;SDS011;65120;59.304;18.294;2023-04-06T07:24:55;1.13;;;0.50;;
76310;SDS011;65120;59.304;18.294;2023-04-06T07:27:22;2.50;;;0.50;;
76310;SDS011;65120;59.304;18.294;2023-04-06T07:29:49;1.45;;;0.50;;
76310;SDS011;65120;59.304;18.294;2023-04-06T07:32:15;2.35;;;0.52;;
76310;SDS011;65120;59.304;18.294;2023-04-06T07:34:42;1.65;;;0.95;;
76310;SDS011;65120;59.304;18.294;2023-04-06T07:37:10;1.00;;;0.65;;
76310;SDS011;65120;59.304;18.294;2023-04-06T07:39:37;1.58;;;0.50;;
76310;SDS011;65120;59.304;18.294;2023-04-06T07:42:05;0.65;;;0.50;;
76310;SDS011;65120;59.304;18.294;2023-04-06T07:44:32;1.10;;;0.50;;
76310;SDS011;65120;59.304;18.294;2023-04-06T07:46:59;1.38;;;0.40;;
76310;SDS011;65120;59.304;18.294;2023-04-06T07:49:26;1.08;;;0.30;;
76310;SDS011;65120;59.304;18.294;2023-04-06T07:51:53;1.63;;;0.40;;
76310;SDS011;65120;59.304;18.294;2023-04-06T07:54:20;0.85;;;0.30;;
76310;SDS011;65120;59.304;18.294;2023-04-06T07:56:47;2.65;;;0.40;;
76310;SDS011;65120;59.304;18.294;2023-04-06T07:59:15;0.82;;;0.40;;
76310;SDS011;65120;59.304;18.294;2023-04-06T08:01:42;2.15;;;0.40;;
76310;SDS011;65120;59.304;18.294;2023-04-06T08:04:09;0.60;;;0.47;;
76310;SDS011;65120;59.304;18.294;2023-04-06T08:06:36;0.57;;;0.40;;
76310;SDS011;65120;59.304;18.294;2023-04-06T08:09:03;1.67;;;0.43;;
76310;SDS011;65120;59.304;18.294;2023-04-06T08:11:30;1.88;;;0.40;;
76310;SDS011;65120;59.304;18.294;2023-04-06T08:13:56;0.80;;;0.30;;
76310;SDS011;65120;59.304;18.294;2023-04-06T08:16:25;0.80;;;0.30;;
76310;SDS011;65120;59.304;18.294;2023-04-06T08:18:52;0.43;;;0.20;;
76310;SDS011;65120;59.304;18.294;2023-04-06T08:21:18;1.05;;;0.40;;
76310;SDS011;65120;59.304;18.294;2023-04-06T08:23:45;1.60;;;0.30;;
76310;SDS011;65120;59.304;18.294;2023-04-06T08:26:12;1.13;;;0.30;;
76310;SDS011;65120;59.304;18.294;2023-04-06T08:28:39;0.40;;;0.30;;
76310;SDS011;65120;59.304;18.294;2023-04-06T08:31:06;2.38;;;0.60;;
76310;SDS011;65120;59.304;18.294;2023-04-06T08:33:34;0.82;;;0.40;;
76310;SDS011;65120;59.304;18.294;2023-04-06T08:36:07;1.40;;;0.40;;
76310;SDS011;65120;59.304;18.294;2023-04-06T08:38:35;0.57;;;0.30;;
76310;SDS011;65120;59.304;18.294;2023-04-06T08:41:06;1.42;;;0.40;;
76310;SDS011;65120;59.304;18.294;2023-04-06T08:43:35;1.40;;;0.32;;
76310;SDS011;65120;59.304;18.294;2023-04-06T08:46:07;1.25;;;0.40;;
76310;SDS011;65120;59.304;18.294;2023-04-06T08:48:36;0.77;;;0.30;;
76310;SDS011;65120;59.304;18.294;2023-04-06T08:51:04;0.55;;;0.30;;
76310;SDS011;65120;59.304;18.294;2023-04-06T08:53:31;0.50;;;0.30;;
76310;SDS011;65120;59.304;18.294;2023-04-06T08:55:58;0.30;;;0.20;;
76310;SDS011;65120;59.304;18.294;2023-04-06T08:58:28;2.05;;;0.30;;
76310;SDS011;65120;59.304;18.294;2023-04-06T09:00:58;1.00;;;0.32;;
76310;SDS011;65120;59.304;18.294;2023-04-06T09:03:27;1.17;;;0.30;;
76310;SDS011;65120;59.304;18.294;2023-04-06T09:05:57;0.32;;;0.20;;
76310;SDS011;65120;59.304;18.294;2023-04-06T09:08:24;0.70;;;0.28;;
76310;SDS011;65120;59.304;18.294;2023-04-06T09:10:51;1.13;;;0.30;;
76310;SDS011;65120;59.304;18.294;2023-04-06T09:13:19;0.98;;;0.30;;
76310;SDS011;65120;59.304;18.294;2023-04-06T09:15:46;0.52;;;0.32;;
76310;SDS011;65120;59.304;18.294;2023-04-06T09:18:12;1.55;;;0.25;;
76310;SDS011;65120;59.304;18.294;2023-04-06T09:20:40;0.80;;;0.30;;
76310;SDS011;65120;59.304;18.294;2023-04-06T09:23:18;0.75;;;0.25;;
76310;SDS011;65120;59.304;18.294;2023-04-06T09:25:45;0.70;;;0.30;;
76310;SDS011;65120;59.304;18.294;2023-04-06T09:28:12;0.50;;;0.30;;
76310;SDS011;65120;59.304;18.294;2023-04-06T09:30:47;1.27;;;0.20;;
76310;SDS011;65120;59.304;18.294;2023-04-06T09:33:21;1.17;;;0.30;;
76310;SDS011;65120;59.304;18.294;2023-04-06T09:35:49;1.63;;;0.30;;
76310;SDS011;65120;59.304;18.294;2023-04-06T09:38:17;0.50;;;0.20;;
76310;SDS011;65120;59.304;18.294;2023-04-06T09:40:48;0.50;;;0.50;;
76310;SDS011;65120;59.304;18.294;2023-04-06T09:43:23;0.45;;;0.25;;
76310;SDS011;65120;59.304;18.294;2023-04-06T09:45:50;2.05;;;1.00;;
76310;SDS011;65120;59.304;18.294;2023-04-06T09:48:18;0.60;;;0.43;;
76310;SDS011;65120;59.304;18.294;2023-04-06T09:50:47;1.50;;;0.30;;
76310;SDS011;65120;59.304;18.294;2023-04-06T09:53:15;3.22;;;0.43;;
76310;SDS011;65120;59.304;18.294;2023-04-06T09:55:45;0.70;;;0.30;;
76310;SDS011;65120;59.304;18.294;2023-04-06T09:58:16;1.55;;;0.85;;
76310;SDS011;65120;59.304;18.294;2023-04-06T10:00:44;1.92;;;0.20;;
76310;SDS011;65120;59.304;18.294;2023-04-06T10:03:18;1.25;;;0.30;;
76310;SDS011;65120;59.304;18.294;2023-04-06T10:05:52;0.45;;;0.28;;
76310;SDS011;65120;59.304;18.294;2023-04-06T10:08:25;1.27;;;0.40;;
76310;SDS011;65120;59.304;18.294;2023-04-06T10:10:54;0.47;;;0.25;;
76310;SDS011;65120;59.304;18.294;2023-04-06T10:13:22;0.52;;;0.30;;
76310;SDS011;65120;59.304;18.294;2023-04-06T10:15:50;2.33;;;0.63;;
76310;SDS011;65120;59.304;18.294;2023-04-06T10:18:18;0.35;;;0.28;;
76310;SDS011;65120;59.304;18.294;2023-04-06T10:20:47;0.70;;;0.40;;
76310;SDS011;65120;59.304;18.294;2023-04-06T10:23:18;0.82;;;0.32;;
76310;SDS011;65120;59.304;18.294;2023-04-06T10:25:53;1.80;;;0.40;;
76310;SDS011;65120;59.304;18.294;2023-04-06T10:28:20;0.35;;;0.20;;
76310;SDS011;65120;59.304;18.294;2023-04-06T10:30:48;2.58;;;0.45;;
76310;SDS011;65120;59.304;18.294;2023-04-06T10:33:15;1.38;;;0.30;;
76310;SDS011;65120;59.304;18.294;2023-04-06T10:35:43;2.08;;;0.30;;
76310;SDS011;65120;59.304;18.294;2023-04-06T10:38:10;0.50;;;0.30;;
76310;SDS011;65120;59.304;18.294;2023-04-06T10:40:39;1.05;;;0.45;;
76310;SDS011;65120;59.304;18.294;2023-04-06T10:43:09;0.63;;;0.30;;
76310;SDS011;65120;59.304;18.294;2023-04-06T10:45:37;0.98;;;0.30;;
76310;SDS011;65120;59.304;18.294;2023-04-06T10:48:14;1.17;;;0.30;;
76310;SDS011;65120;59.304;18.294;2023-04-06T10:50:43;1.30;;;0.77;;
76310;SDS011;65120;59.304;18.294;2023-04-06T10:53:11;2.45;;;0.57;;
76310;SDS011;65120;59.304;18.294;2023-04-06T10:55:38;0.45;;;0.30;;
76310;SDS011;65120;59.304;18.294;2023-04-06T10:58:07;0.57;;;0.30;;
76310;SDS011;65120;59.304;18.294;2023-04-06T11:00:35;0.77;;;0.65;;
76310;SDS011;65120;59.304;18.294;2023-04-06T11:03:09;0.40;;;0.30;;
76310;SDS011;65120;59.304;18.294;2023-04-06T11:05:36;0.57;;;0.30;;
76310;SDS011;65120;59.304;18.294;2023-04-06T11:08:03;0.52;;;0.20;;
76310;SDS011;65120;59.304;18.294;2023-04-06T11:10:30;0.55;;;0.38;;
76310;SDS011;65120;59.304;18.294;2023-04-06T11:12:57;2.00;;;0.30;;
76310;SDS011;65120;59.304;18.294;2023-04-06T11:15:25;0.60;;;0.30;;
76310;SDS011;65120;59.304;18.294;2023-04-06T11:17:52;0.65;;;0.30;;
76310;SDS011;65120;59.304;18.294;2023-04-06T11:20:19;0.65;;;0.30;;
76310;SDS011;65120;59.304;18.294;2023-04-06T11:22:49;0.50;;;0.30;;
76310;SDS011;65120;59.304;18.294;2023-04-06T11:25:17;0.38;;;0.20;;
76310;SDS011;65120;59.304;18.294;2023-04-06T11:27:45;0.65;;;0.30;;
76310;SDS011;65120;59.304;18.294;2023-04-06T11:30:13;1.45;;;0.32;;
76310;SDS011;65120;59.304;18.294;2023-04-06T11:32:42;3.88;;;0.40;;
76310;SDS011;65120;59.304;18.294;2023-04-06T11:35:19;1.52;;;0.30;;
76310;SDS011;65120;59.304;18.294;2023-04-06T11:37:48;0.57;;;0.38;;
76310;SDS011;65120;59.304;18.294;2023-04-06T11:40:15;2.42;;;0.30;;
76310;SDS011;65120;59.304;18.294;2023-04-06T11:42:51;0.82;;;0.30;;
76310;SDS011;65120;59.304;18.294;2023-04-06T11:45:19;0.60;;;0.20;;
76310;SDS011;65120;59.304;18.294;2023-04-06T11:47:54;0.70;;;0.47;;
76310;SDS011;65120;59.304;18.294;2023-04-06T11:50:22;0.82;;;0.40;;
76310;SDS011;65120;59.304;18.294;2023-04-06T11:52:57;1.15;;;0.35;;
76310;SDS011;65120;59.304;18.294;2023-04-06T11:55:24;1.83;;;0.40;;
76310;SDS011;65120;59.304;18.294;2023-04-06T11:57:51;2.08;;;0.30;;
76310;SDS011;65120;59.304;18.294;2023-04-06T12:00:19;0.30;;;0.20;;
76310;SDS011;65120;59.304;18.294;2023-04-06T12:02:48;1.17;;;0.30;;
76310;SDS011;65120;59.304;18.294;2023-04-06T12:05:15;0.57;;;0.40;;
76310;SDS011;65120;59.304;18.294;2023-04-06T12:07:42;0.50;;;0.30;;
76310;SDS011;65120;59.304;18.294;2023-04-06T12:10:09;0.70;;;0.30;;
76310;SDS011;65120;59.304;18.294;2023-04-06T12:12:36;0.98;;;0.43;;
76310;SDS011;65120;59.304;18.294;2023-04-06T12:15:03;1.55;;;0.30;;
76310;SDS011;65120;59.304;18.294;2023-04-06T12:17:31;0.47;;;0.47;;
76310;SDS011;65120;59.304;18.294;2023-04-06T12:19:59;0.50;;;0.30;;
76310;SDS011;65120;59.304;18.294;2023-04-06T12:22:26;1.40;;;0.40;;
76310;SDS011;65120;59.304;18.294;2023-04-06T12:24:53;0.43;;;0.30;;
76310;SDS011;65120;59.304;18.294;2023-04-06T12:27:20;0.50;;;0.32;;
76310;SDS011;65120;59.304;18.294;2023-04-06T12:29:46;1.50;;;0.30;;
76310;SDS011;65120;59.304;18.294;2023-04-06T12:32:13;2.08;;;0.40;;
76310;SDS011;65120;59.304;18.294;2023-04-06T12:34:40;0.73;;;0.50;;
76310;SDS011;65120;59.304;18.294;2023-04-06T12:37:09;0.70;;;0.40;;
76310;SDS011;65120;59.304;18.294;2023-04-06T12:39:35;2.30;;;0.40;;
76310;SDS011;65120;59.304;18.294;2023-04-06T12:42:02;0.40;;;0.30;;
76310;SDS011;65120;59.304;18.294;2023-04-06T12:44:29;0.90;;;0.40;;
76310;SDS011;65120;59.304;18.294;2023-04-06T12:46:56;0.70;;;0.35;;
76310;SDS011;65120;59.304;18.294;2023-04-06T12:49:23;0.70;;;0.40;;
76310;SDS011;65120;59.304;18.294;2023-04-06T12:51:50;2.58;;;0.50;;
76310;SDS011;65120;59.304;18.294;2023-04-06T12:54:18;1.05;;;0.60;;
76310;SDS011;65120;59.304;18.294;2023-04-06T12:56:46;0.57;;;0.30;;
76310;SDS011;65120;59.304;18.294;2023-04-06T12:59:12;0.50;;;0.32;;
76310;SDS011;65120;59.304;18.294;2023-04-06T13:01:39;1.25;;;0.28;;
76310;SDS011;65120;59.304;18.294;2023-04-06T13:04:06;0.90;;;0.32;;
76310;SDS011;65120;59.304;18.294;2023-04-06T13:06:33;0.85;;;0.50;;
76310;SDS011;65120;59.304;18.294;2023-04-06T13:09:00;0.70;;;0.40;;
76310;SDS011;65120;59.304;18.294;2023-04-06T13:11:29;0.60;;;0.50;;
76310;SDS011;65120;59.304;18.294;2023-04-06T13:13:56;0.88;;;0.40;;
76310;SDS011;65120;59.304;18.294;2023-04-06T13:16:23;2.13;;;1.08;;
76310;SDS011;65120;59.304;18.294;2023-04-06T13:18:50;1.30;;;0.43;;
76310;SDS011;65120;59.304;18.294;2023-04-06T13:21:17;2.15;;;0.70;;
76310;SDS011;65120;59.304;18.294;2023-04-06T13:23:45;0.52;;;0.38;;
76310;SDS011;65120;59.304;18.294;2023-04-06T13:26:12;1.63;;;0.70;;
76310;SDS011;65120;59.304;18.294;2023-04-06T13:28:41;0.98;;;0.40;;
76310;SDS011;65120;59.304;18.294;2023-04-06T13:31:08;1.15;;;0.43;;
76310;SDS011;65120;59.304;18.294;2023-04-06T13:33:35;1.65;;;0.40;;
76310;SDS011;65120;59.304;18.294;2023-04-06T13:36:03;0.45;;;0.40;;
76310;SDS011;65120;59.304;18.294;2023-04-06T13:38:32;1.00;;;0.40;;
76310;SDS011;65120;59.304;18.294;2023-04-06T13:40:59;1.50;;;0.40;;
76310;SDS011;65120;59.304;18.294;2023-04-06T13:43:26;1.23;;;0.40;;
76310;SDS011;65120;59.304;18.294;2023-04-06T13:45:54;0.95;;;0.30;;
76310;SDS011;65120;59.304;18.294;2023-04-06T13:48:23;0.43;;;0.40;;
76310;SDS011;65120;59.304;18.294;2023-04-06T13:50:51;0.40;;;0.30;;
76310;SDS011;65120;59.304;18.294;2023-04-06T13:53:18;0.80;;;0.35;;
76310;SDS011;65120;59.304;18.294;2023-04-06T13:55:51;0.35;;;0.35;;
76310;SDS011;65120;59.304;18.294;2023-04-06T13:58:19;1.00;;;0.40;;
76310;SDS011;65120;59.304;18.294;2023-04-06T14:00:46;0.93;;;0.55;;
76310;SDS011;65120;59.304;18.294;2023-04-06T14:03:14;1.98;;;0.35;;
76310;SDS011;65120;59.304;18.294;2023-04-06T14:05:41;0.70;;;0.38;;
76310;SDS011;65120;59.304;18.294;2023-04-06T14:08:08;0.68;;;0.40;;
76310;SDS011;65120;59.304;18.294;2023-04-06T14:10:36;0.50;;;0.40;;
76310;SDS011;65120;59.304;18.294;2023-04-06T14:13:04;3.05;;;0.50;;
76310;SDS011;65120;59.304;18.294;2023-04-06T14:15:30;0.65;;;0.45;;
76310;SDS011;65120;59.304;18.294;2023-04-06T14:17:57;0.30;;;0.25;;
76310;SDS011;65120;59.304;18.294;2023-04-06T14:20:26;1.80;;;0.40;;
76310;SDS011;65120;59.304;18.294;2023-04-06T14:22:53;1.55;;;0.60;;
76310;SDS011;65120;59.304;18.294;2023-04-06T14:25:20;1.05;;;0.32;;
76310;SDS011;65120;59.304;18.294;2023-04-06T14:27:47;0.77;;;0.47;;
76310;SDS011;65120;59.304;18.294;2023-04-06T14:30:14;0.82;;;0.40;;
76310;SDS011;65120;59.304;18.294;2023-04-06T14:32:42;0.70;;;0.45;;
76310;SDS011;65120;59.304;18.294;2023-04-06T14:35:09;0.70;;;0.40;;